createdAt,value
2023-07-31T00:00:54.604Z,12.59
2023-07-31T00:01:54.617Z,12.55
2023-07-31T00:02:55.850Z,12.56
2023-07-31T00:03:54.656Z,12.58
2023-07-31T00:04:54.545Z,12.58
2023-07-31T00:05:54.559Z,12.56
2023-07-31T00:06:54.558Z,12.55
2023-07-31T00:07:54.534Z,12.54
2023-07-31T00:08:54.521Z,12.52
2023-07-31T00:09:54.523Z,12.49
2023-07-31T00:10:54.497Z,12.48
2023-07-31T00:11:54.476Z,12.44
2023-07-31T00:12:54.472Z,12.41
2023-07-31T00:13:54.452Z,12.40
2023-07-31T00:14:54.449Z,12.43
2023-07-31T00:15:54.446Z,12.43
2023-07-31T00:16:54.439Z,12.41
2023-07-31T00:17:54.428Z,12.40
2023-07-31T00:18:54.408Z,12.37
2023-07-31T00:19:54.394Z,12.36
2023-07-31T00:20:54.382Z,12.36
2023-07-31T00:21:54.345Z,12.33
2023-07-31T00:22:54.361Z,12.31
2023-07-31T00:23:54.375Z,12.30
2023-07-31T00:24:54.348Z,12.30
2023-07-31T00:25:54.311Z,12.26
2023-07-31T00:26:54.338Z,12.26
2023-07-31T00:27:54.383Z,12.25
2023-07-31T00:28:54.308Z,12.23
2023-07-31T00:29:54.311Z,12.21
2023-07-31T00:30:54.263Z,12.21
2023-07-31T00:31:54.253Z,12.21
2023-07-31T00:32:54.260Z,12.21
2023-07-31T00:33:54.218Z,12.19
2023-07-31T00:34:54.226Z,12.19
2023-07-31T00:35:54.205Z,12.18
2023-07-31T00:36:54.190Z,12.16
2023-07-31T00:37:54.173Z,12.15
2023-07-31T00:38:54.174Z,12.15
2023-07-31T00:39:54.184Z,12.13
2023-07-31T00:40:54.172Z,12.12
2023-07-31T00:41:54.141Z,12.12
2023-07-31T00:42:54.143Z,12.11
2023-07-31T00:43:54.123Z,12.11
2023-07-31T00:44:54.106Z,12.08
2023-07-31T00:45:54.145Z,12.08
2023-07-31T00:46:54.077Z,12.05
2023-07-31T00:47:54.113Z,12.04
2023-07-31T00:48:54.066Z,12.04
2023-07-31T00:49:54.063Z,12.04
2023-07-31T00:50:54.049Z,12.03
2023-07-31T00:51:54.014Z,12.03
2023-07-31T00:52:54.022Z,12.03
2023-07-31T00:53:54.002Z,12.01
2023-07-31T00:54:54.098Z,12.00
2023-07-31T00:55:53.969Z,11.97
2023-07-31T00:56:53.964Z,11.94
2023-07-31T00:57:53.998Z,11.94
2023-07-31T00:58:53.953Z,11.93
2023-07-31T00:59:53.921Z,11.94
2023-07-31T01:00:53.957Z,11.93
2023-07-31T01:01:53.912Z,11.94
2023-07-31T01:02:53.988Z,11.88
2023-07-31T01:03:53.889Z,11.85
2023-07-31T01:04:53.886Z,11.87
2023-07-31T01:05:53.864Z,11.84
2023-07-31T01:06:53.861Z,11.82
2023-07-31T01:07:53.852Z,11.79
2023-07-31T01:08:53.845Z,11.79
2023-07-31T01:09:53.829Z,11.79
2023-07-31T01:10:53.810Z,11.78
2023-07-31T01:11:53.799Z,11.78
2023-07-31T01:12:53.792Z,11.79
2023-07-31T01:13:53.800Z,11.78
2023-07-31T01:14:53.759Z,11.78
2023-07-31T01:15:53.739Z,11.77
2023-07-31T01:16:53.784Z,11.77
2023-07-31T01:17:53.785Z,11.78
2023-07-31T01:18:53.741Z,11.77
2023-07-31T01:19:53.726Z,11.77
2023-07-31T01:20:53.708Z,11.77
2023-07-31T01:21:53.697Z,11.74
2023-07-31T01:22:53.680Z,11.75
2023-07-31T01:23:53.678Z,11.74
2023-07-31T01:24:53.652Z,11.72
2023-07-31T01:25:53.644Z,11.70
2023-07-31T01:26:53.625Z,11.69
2023-07-31T01:27:53.616Z,11.70
2023-07-31T01:28:53.612Z,11.69
2023-07-31T01:29:53.607Z,11.69
2023-07-31T01:30:53.629Z,11.66
2023-07-31T01:31:53.564Z,11.64
2023-07-31T01:32:53.626Z,11.64
2023-07-31T01:33:53.579Z,11.62
2023-07-31T01:34:53.534Z,11.60
2023-07-31T01:35:53.528Z,11.60
2023-07-31T01:36:53.507Z,11.59
2023-07-31T01:37:53.496Z,11.60
2023-07-31T01:38:53.485Z,11.60
2023-07-31T01:39:53.493Z,11.60
2023-07-31T01:40:53.483Z,11.62
2023-07-31T01:41:53.451Z,11.60
2023-07-31T01:42:53.485Z,11.57
2023-07-31T01:43:53.440Z,11.51
2023-07-31T01:44:53.445Z,11.46
2023-07-31T01:45:53.424Z,11.45
2023-07-31T01:46:53.482Z,11.44
2023-07-31T01:47:53.465Z,11.46
2023-07-31T01:48:53.385Z,11.46
2023-07-31T01:49:53.378Z,11.45
2023-07-31T01:50:53.378Z,11.46
2023-07-31T01:51:53.344Z,11.45
2023-07-31T01:52:53.330Z,11.45
2023-07-31T01:53:53.361Z,11.48
2023-07-31T01:54:53.328Z,11.46
2023-07-31T01:55:53.283Z,11.48
2023-07-31T01:56:53.296Z,11.46
2023-07-31T01:57:53.298Z,11.48
2023-07-31T01:58:53.289Z,11.49
2023-07-31T01:59:53.251Z,11.49
2023-07-31T02:00:53.255Z,11.51
2023-07-31T02:01:54.946Z,11.49
2023-07-31T02:02:53.317Z,11.49
2023-07-31T02:03:53.258Z,11.51
2023-07-31T02:04:53.209Z,11.51
2023-07-31T02:05:53.190Z,11.51
2023-07-31T02:06:53.189Z,11.53
2023-07-31T02:07:53.184Z,11.53
2023-07-31T02:08:53.173Z,11.53
2023-07-31T02:09:53.164Z,11.54
2023-07-31T02:10:53.132Z,11.54
2023-07-31T02:11:53.132Z,11.53
2023-07-31T02:12:53.102Z,11.54
2023-07-31T02:13:53.093Z,11.54
2023-07-31T02:14:53.124Z,11.54
2023-07-31T02:15:53.167Z,11.54
2023-07-31T02:16:53.125Z,11.54
2023-07-31T02:17:53.063Z,11.53
2023-07-31T02:18:53.049Z,11.53
2023-07-31T02:19:53.023Z,11.51
2023-07-31T02:20:53.058Z,11.48
2023-07-31T02:21:53.023Z,11.48
2023-07-31T02:22:52.996Z,11.46
2023-07-31T02:23:53.048Z,11.44
2023-07-31T02:24:52.990Z,11.44
2023-07-31T02:25:52.986Z,11.44
2023-07-31T02:26:52.954Z,11.41
2023-07-31T02:27:52.969Z,11.42
2023-07-31T02:28:52.933Z,11.44
2023-07-31T02:29:52.918Z,11.44
2023-07-31T02:30:52.928Z,11.45
2023-07-31T02:31:52.951Z,11.45
2023-07-31T02:32:52.904Z,11.45
2023-07-31T02:33:52.877Z,11.45
2023-07-31T02:34:52.858Z,11.45
2023-07-31T02:35:52.860Z,11.45
2023-07-31T02:36:52.828Z,11.44
2023-07-31T02:37:52.848Z,11.44
2023-07-31T02:38:52.829Z,11.44
2023-07-31T02:39:52.803Z,11.44
2023-07-31T02:40:52.794Z,11.44
2023-07-31T02:41:52.789Z,11.44
2023-07-31T02:42:52.773Z,11.39
2023-07-31T02:43:52.776Z,11.39
2023-07-31T02:44:52.752Z,11.41
2023-07-31T02:45:52.837Z,11.41
2023-07-31T02:46:52.732Z,11.41
2023-07-31T02:47:52.771Z,11.41
2023-07-31T02:48:52.719Z,11.41
2023-07-31T02:49:52.709Z,11.38
2023-07-31T02:50:52.682Z,11.35
2023-07-31T02:51:52.687Z,11.31
2023-07-31T02:52:52.649Z,11.30
2023-07-31T02:53:52.645Z,11.30
2023-07-31T02:54:52.639Z,11.30
2023-07-31T02:55:52.616Z,11.31
2023-07-31T02:56:52.624Z,11.31
2023-07-31T02:57:52.600Z,11.33
2023-07-31T02:58:52.590Z,11.39
2023-07-31T02:59:52.591Z,11.38
2023-07-31T03:00:52.560Z,11.35
2023-07-31T03:01:52.622Z,11.33
2023-07-31T03:02:52.596Z,11.28
2023-07-31T03:03:52.542Z,11.26
2023-07-31T03:04:52.518Z,11.26
2023-07-31T03:05:52.528Z,11.24
2023-07-31T03:06:52.483Z,11.23
2023-07-31T03:07:52.494Z,11.23
2023-07-31T03:08:52.486Z,11.20
2023-07-31T03:09:52.477Z,11.21
2023-07-31T03:10:52.456Z,11.24
2023-07-31T03:11:52.452Z,11.28
2023-07-31T03:12:52.445Z,11.35
2023-07-31T03:13:52.425Z,11.35
2023-07-31T03:14:52.440Z,11.36
2023-07-31T03:15:52.516Z,11.36
2023-07-31T03:16:52.388Z,11.36
2023-07-31T03:17:52.422Z,11.36
2023-07-31T03:18:52.379Z,11.38
2023-07-31T03:19:52.346Z,11.39
2023-07-31T03:20:52.332Z,11.41
2023-07-31T03:21:52.337Z,11.41
2023-07-31T03:22:52.328Z,11.44
2023-07-31T03:23:52.362Z,11.45
2023-07-31T03:24:52.342Z,11.45
2023-07-31T03:25:52.288Z,11.46
2023-07-31T03:26:52.291Z,11.49
2023-07-31T03:27:52.293Z,11.49
2023-07-31T03:28:52.268Z,11.49
2023-07-31T03:29:52.500Z,11.49
2023-07-31T03:30:52.232Z,11.48
2023-07-31T03:31:52.270Z,11.49
2023-07-31T03:32:52.257Z,11.44
2023-07-31T03:33:52.216Z,11.44
2023-07-31T03:34:52.194Z,11.44
2023-07-31T03:35:52.171Z,11.44
2023-07-31T03:36:52.160Z,11.45
2023-07-31T03:37:52.163Z,11.45
2023-07-31T03:38:52.152Z,11.45
2023-07-31T03:39:52.139Z,11.46
2023-07-31T03:40:52.137Z,11.46
2023-07-31T03:41:52.111Z,11.46
2023-07-31T03:42:52.078Z,11.48
2023-07-31T03:43:52.089Z,11.51
2023-07-31T03:44:52.078Z,11.48
2023-07-31T03:45:52.062Z,11.49
2023-07-31T03:46:52.070Z,11.49
2023-07-31T03:47:52.063Z,11.46
2023-07-31T03:48:52.049Z,11.45
2023-07-31T03:49:52.023Z,11.46
2023-07-31T03:50:52.030Z,11.46
2023-07-31T03:51:52.072Z,11.44
2023-07-31T03:52:51.975Z,11.45
2023-07-31T03:53:51.976Z,11.48
2023-07-31T03:54:51.961Z,11.48
2023-07-31T03:55:51.940Z,11.48
2023-07-31T03:56:51.932Z,11.48
2023-07-31T03:57:51.955Z,11.46
2023-07-31T03:58:51.928Z,11.46
2023-07-31T03:59:51.899Z,11.46
2023-07-31T04:00:51.906Z,11.45
2023-07-31T04:01:51.888Z,11.46
2023-07-31T04:02:51.899Z,11.46
2023-07-31T04:03:51.854Z,11.46
2023-07-31T04:04:51.859Z,11.45
2023-07-31T04:05:51.839Z,11.44
2023-07-31T04:06:51.827Z,11.45
2023-07-31T04:07:51.811Z,11.45
2023-07-31T04:08:51.787Z,11.46
2023-07-31T04:09:51.789Z,11.48
2023-07-31T04:10:51.781Z,11.48
2023-07-31T04:11:51.774Z,11.49
2023-07-31T04:12:51.767Z,11.48
2023-07-31T04:13:51.765Z,11.51
2023-07-31T04:14:51.731Z,11.51
2023-07-31T04:15:51.761Z,11.53
2023-07-31T04:16:51.777Z,11.53
2023-07-31T04:17:51.743Z,11.54
2023-07-31T04:18:51.692Z,11.54
2023-07-31T04:19:51.716Z,11.54
2023-07-31T04:20:51.664Z,11.53
2023-07-31T04:21:51.683Z,11.49
2023-07-31T04:22:51.648Z,11.53
2023-07-31T04:23:51.622Z,11.48
2023-07-31T04:24:51.624Z,11.45
2023-07-31T04:25:51.619Z,11.48
2023-07-31T04:26:51.585Z,11.48
2023-07-31T04:27:51.610Z,11.53
2023-07-31T04:28:51.598Z,11.53
2023-07-31T04:29:51.575Z,11.51
2023-07-31T04:30:51.585Z,11.51
2023-07-31T04:31:51.569Z,11.54
2023-07-31T04:32:51.613Z,11.53
2023-07-31T04:33:51.525Z,11.53
2023-07-31T04:34:51.505Z,11.53
2023-07-31T04:35:51.500Z,11.53
2023-07-31T04:36:51.505Z,11.51
2023-07-31T04:37:51.503Z,11.51
2023-07-31T04:38:51.554Z,11.54
2023-07-31T04:39:51.465Z,11.56
2023-07-31T04:40:51.456Z,11.59
2023-07-31T04:41:51.453Z,11.59
2023-07-31T04:42:51.441Z,11.57
2023-07-31T04:43:51.456Z,11.59
2023-07-31T04:44:51.398Z,11.56
2023-07-31T04:45:51.434Z,11.53
2023-07-31T04:46:51.454Z,11.56
2023-07-31T04:47:51.369Z,11.59
2023-07-31T04:48:51.390Z,11.60
2023-07-31T04:49:51.357Z,11.62
2023-07-31T04:50:51.341Z,11.63
2023-07-31T04:51:51.319Z,11.63
2023-07-31T04:52:51.319Z,11.64
2023-07-31T04:53:51.284Z,11.63
2023-07-31T04:54:51.282Z,11.63
2023-07-31T04:55:51.274Z,11.64
2023-07-31T04:56:51.262Z,11.67
2023-07-31T04:57:51.264Z,11.69
2023-07-31T04:58:51.245Z,11.69
2023-07-31T04:59:51.622Z,11.67
2023-07-31T05:00:51.243Z,11.69
2023-07-31T05:01:51.306Z,11.70
2023-07-31T05:02:51.298Z,11.70
2023-07-31T05:03:51.242Z,11.70
2023-07-31T05:04:51.178Z,11.72
2023-07-31T05:05:51.163Z,11.74
2023-07-31T05:06:51.148Z,11.75
2023-07-31T05:07:51.154Z,11.77
2023-07-31T05:08:51.130Z,11.77
2023-07-31T05:09:51.136Z,11.81
2023-07-31T05:10:51.122Z,11.84
2023-07-31T05:11:51.098Z,11.85
2023-07-31T05:12:51.109Z,11.88
2023-07-31T05:13:51.096Z,11.90
2023-07-31T05:14:51.039Z,11.90
2023-07-31T05:15:51.074Z,11.88
2023-07-31T05:16:51.071Z,11.93
2023-07-31T05:17:51.058Z,11.94
2023-07-31T05:18:51.031Z,11.94
2023-07-31T05:19:51.036Z,11.94
2023-07-31T05:20:50.978Z,11.94
2023-07-31T05:21:50.981Z,11.96
2023-07-31T05:22:50.970Z,11.97
2023-07-31T05:23:50.959Z,11.98
2023-07-31T05:24:50.943Z,12.03
2023-07-31T05:25:50.938Z,12.04
2023-07-31T05:26:50.916Z,12.07
2023-07-31T05:27:50.922Z,12.08
2023-07-31T05:28:50.894Z,12.11
2023-07-31T05:29:50.904Z,12.07
2023-07-31T05:30:50.885Z,12.04
2023-07-31T05:31:50.910Z,12.04
2023-07-31T05:32:50.885Z,12.07
2023-07-31T05:33:50.842Z,12.08
2023-07-31T05:34:50.852Z,12.08
2023-07-31T05:35:50.846Z,12.15
2023-07-31T05:36:50.805Z,12.18
2023-07-31T05:37:50.797Z,12.21
2023-07-31T05:38:50.776Z,12.18
2023-07-31T05:39:50.781Z,12.16
2023-07-31T05:40:50.798Z,12.18
2023-07-31T05:41:50.778Z,12.19
2023-07-31T05:42:50.750Z,12.22
2023-07-31T05:43:50.745Z,12.19
2023-07-31T05:44:50.724Z,12.22
2023-07-31T05:45:50.720Z,12.26
2023-07-31T05:46:50.681Z,12.29
2023-07-31T05:47:50.698Z,12.33
2023-07-31T05:48:50.673Z,12.34
2023-07-31T05:49:50.674Z,12.31
2023-07-31T05:50:50.647Z,12.29
2023-07-31T05:51:50.628Z,12.30
2023-07-31T05:52:50.617Z,12.31
2023-07-31T05:53:50.630Z,12.34
2023-07-31T05:54:50.592Z,12.36
2023-07-31T05:55:50.598Z,12.38
2023-07-31T05:56:50.587Z,12.38
2023-07-31T05:57:50.604Z,12.41
2023-07-31T05:58:50.542Z,12.43
2023-07-31T05:59:50.542Z,12.44
2023-07-31T06:00:50.544Z,12.48
2023-07-31T06:01:50.588Z,12.49
2023-07-31T06:02:50.665Z,12.51
2023-07-31T06:03:50.603Z,12.58
2023-07-31T06:04:50.585Z,12.59
2023-07-31T06:05:50.494Z,12.59
2023-07-31T06:06:50.463Z,12.63
2023-07-31T06:07:50.462Z,12.67
2023-07-31T06:08:50.452Z,12.66
2023-07-31T06:09:50.585Z,12.69
2023-07-31T06:10:50.444Z,12.69
2023-07-31T06:11:50.418Z,12.70
2023-07-31T06:12:50.405Z,12.71
2023-07-31T06:13:50.398Z,12.74
2023-07-31T06:14:50.381Z,12.76
2023-07-31T06:15:50.403Z,12.79
2023-07-31T06:16:50.373Z,12.79
2023-07-31T06:17:50.365Z,12.81
2023-07-31T06:18:50.328Z,12.81
2023-07-31T06:19:50.318Z,12.84
2023-07-31T06:20:50.290Z,12.88
2023-07-31T06:21:50.285Z,12.88
2023-07-31T06:22:50.297Z,12.91
2023-07-31T06:23:50.280Z,12.92
2023-07-31T06:24:50.264Z,12.94
2023-07-31T06:25:50.258Z,12.96
2023-07-31T06:26:50.234Z,12.98
2023-07-31T06:27:50.246Z,12.99
2023-07-31T06:28:50.234Z,13.01
2023-07-31T06:29:50.211Z,13.04
2023-07-31T06:30:50.200Z,13.06
2023-07-31T06:31:50.238Z,13.09
2023-07-31T06:32:50.245Z,13.12
2023-07-31T06:33:50.182Z,13.13
2023-07-31T06:34:50.148Z,13.17
2023-07-31T06:35:50.131Z,13.21
2023-07-31T06:36:50.129Z,13.22
2023-07-31T06:37:50.131Z,13.27
2023-07-31T06:38:50.179Z,13.31
2023-07-31T06:39:50.088Z,13.36
2023-07-31T06:40:50.086Z,13.41
2023-07-31T06:41:50.060Z,13.46
2023-07-31T06:42:50.051Z,13.51
2023-07-31T06:43:50.048Z,13.55
2023-07-31T06:44:50.040Z,13.62
2023-07-31T06:45:50.061Z,13.63
2023-07-31T06:46:50.002Z,13.68
2023-07-31T06:47:50.048Z,13.71
2023-07-31T06:48:49.998Z,13.75
2023-07-31T06:49:49.982Z,13.81
2023-07-31T06:50:49.966Z,13.84
2023-07-31T06:51:49.964Z,13.87
2023-07-31T06:52:49.966Z,13.93
2023-07-31T06:53:49.945Z,13.94
2023-07-31T06:54:49.926Z,13.96
2023-07-31T06:55:49.913Z,14.02
2023-07-31T06:56:49.890Z,14.05
2023-07-31T06:57:49.910Z,14.08
2023-07-31T06:58:49.886Z,14.09
2023-07-31T06:59:49.873Z,14.17
2023-07-31T07:00:49.896Z,14.24
2023-07-31T07:01:49.842Z,14.29
2023-07-31T07:02:49.852Z,14.34
2023-07-31T07:03:49.841Z,14.36
2023-07-31T07:04:49.798Z,14.38
2023-07-31T07:05:49.839Z,14.44
2023-07-31T07:06:49.806Z,14.46
2023-07-31T07:07:49.781Z,14.56
2023-07-31T07:08:49.768Z,14.61
2023-07-31T07:09:49.738Z,14.67
2023-07-31T07:10:49.748Z,14.74
2023-07-31T07:11:49.730Z,14.79
2023-07-31T07:12:49.759Z,14.82
2023-07-31T07:13:49.723Z,14.86
2023-07-31T07:14:49.695Z,14.91
2023-07-31T07:15:49.696Z,14.94
2023-07-31T07:16:49.689Z,14.97
2023-07-31T07:17:49.723Z,15.03
2023-07-31T07:19:02.276Z,15.04
2023-07-31T07:19:49.620Z,15.11
2023-07-31T07:20:49.628Z,15.16
2023-07-31T07:21:49.633Z,15.19
2023-07-31T07:22:49.612Z,15.20
2023-07-31T07:23:49.593Z,15.23
2023-07-31T07:24:49.603Z,15.27
2023-07-31T07:25:49.581Z,15.31
2023-07-31T07:26:49.566Z,15.31
2023-07-31T07:27:49.545Z,15.35
2023-07-31T07:28:49.562Z,15.33
2023-07-31T07:29:49.530Z,15.35
2023-07-31T07:30:49.564Z,15.40
2023-07-31T07:31:49.614Z,15.43
2023-07-31T07:32:49.556Z,15.46
2023-07-31T07:33:49.530Z,15.48
2023-07-31T07:34:49.480Z,15.51
2023-07-31T07:35:49.461Z,15.55
2023-07-31T07:36:49.449Z,15.58
2023-07-31T07:37:50.946Z,15.59
2023-07-31T07:38:49.426Z,15.62
2023-07-31T07:39:49.411Z,15.68
2023-07-31T07:40:49.417Z,15.77
2023-07-31T07:41:49.399Z,15.84
2023-07-31T07:42:49.390Z,15.93
2023-07-31T07:43:49.352Z,16.01
2023-07-31T07:44:49.376Z,16.11
2023-07-31T07:45:49.340Z,16.18
2023-07-31T07:46:49.391Z,16.29
2023-07-31T07:47:49.355Z,16.33
2023-07-31T07:48:49.318Z,16.42
2023-07-31T07:49:53.137Z,16.51
2023-07-31T07:50:49.318Z,16.60
2023-07-31T07:51:49.270Z,16.67
2023-07-31T07:52:49.290Z,16.72
2023-07-31T07:53:49.257Z,16.81
2023-07-31T07:54:49.370Z,16.87
2023-07-31T07:55:49.239Z,16.91
2023-07-31T07:56:49.309Z,16.96
2023-07-31T07:57:49.233Z,16.98
2023-07-31T07:58:49.213Z,17.00
2023-07-31T07:59:49.176Z,17.02
2023-07-31T08:00:49.246Z,17.02
2023-07-31T08:01:49.182Z,17.02
2023-07-31T08:02:49.210Z,17.05
2023-07-31T08:03:49.201Z,17.06
2023-07-31T08:04:49.129Z,17.09
2023-07-31T08:05:49.135Z,17.14
2023-07-31T08:06:49.130Z,17.15
2023-07-31T08:07:49.101Z,17.07
2023-07-31T08:08:49.113Z,17.02
2023-07-31T08:09:49.086Z,17.00
2023-07-31T08:10:49.068Z,17.03
2023-07-31T08:11:49.067Z,17.06
2023-07-31T08:12:49.060Z,17.09
2023-07-31T08:13:49.037Z,17.07
2023-07-31T08:14:49.041Z,17.02
2023-07-31T08:15:49.021Z,17.03
2023-07-31T08:16:49.042Z,17.03
2023-07-31T08:17:49.028Z,17.10
2023-07-31T08:18:49.041Z,17.14
2023-07-31T08:19:49.016Z,17.20
2023-07-31T08:20:48.963Z,17.24
2023-07-31T08:21:48.975Z,17.25
2023-07-31T08:22:48.960Z,17.30
2023-07-31T08:23:48.919Z,17.35
2023-07-31T08:24:48.936Z,17.40
2023-07-31T08:25:48.907Z,17.47
2023-07-31T08:26:48.920Z,17.54
2023-07-31T08:27:48.905Z,17.63
2023-07-31T08:28:48.874Z,17.68
2023-07-31T08:29:48.873Z,17.71
2023-07-31T08:30:48.981Z,17.74
2023-07-31T08:31:48.881Z,17.74
2023-07-31T08:32:48.899Z,17.74
2023-07-31T08:33:48.844Z,17.76
2023-07-31T08:34:48.838Z,17.81
2023-07-31T08:35:48.822Z,17.89
2023-07-31T08:36:48.813Z,17.99
2023-07-31T08:37:48.802Z,18.09
2023-07-31T08:38:48.797Z,18.19
2023-07-31T08:39:48.771Z,18.26
2023-07-31T08:40:48.760Z,18.36
2023-07-31T08:41:48.751Z,18.41
2023-07-31T08:42:48.749Z,18.49
2023-07-31T08:43:48.736Z,18.57
2023-07-31T08:44:48.721Z,18.66
2023-07-31T08:45:48.739Z,18.75
2023-07-31T08:46:48.716Z,18.74
2023-07-31T08:47:48.928Z,18.65
2023-07-31T08:48:48.691Z,18.69
2023-07-31T08:49:48.684Z,18.75
2023-07-31T08:50:48.653Z,18.76
2023-07-31T08:51:48.655Z,18.83
2023-07-31T08:52:48.637Z,18.90
2023-07-31T08:53:48.656Z,18.94
2023-07-31T08:54:48.607Z,19.01
2023-07-31T08:55:48.589Z,19.09
2023-07-31T08:56:48.588Z,19.17
2023-07-31T08:57:48.646Z,19.17
2023-07-31T08:58:48.573Z,19.24
2023-07-31T08:59:48.546Z,19.27
2023-07-31T09:00:48.547Z,19.28
2023-07-31T09:01:48.606Z,19.28
2023-07-31T09:02:48.604Z,19.21
2023-07-31T09:03:48.591Z,19.24
2023-07-31T09:04:48.571Z,19.24
2023-07-31T09:05:48.501Z,19.20
2023-07-31T09:06:48.491Z,19.17
2023-07-31T09:07:48.537Z,19.23
2023-07-31T09:08:48.484Z,19.23
2023-07-31T09:09:48.459Z,19.20
2023-07-31T09:10:48.465Z,19.16
2023-07-31T09:11:48.460Z,19.07
2023-07-31T09:12:48.433Z,19.10
2023-07-31T09:13:48.483Z,19.06
2023-07-31T09:14:48.415Z,19.07
2023-07-31T09:15:48.417Z,19.12
2023-07-31T09:16:48.402Z,19.13
2023-07-31T09:17:48.458Z,19.16
2023-07-31T09:18:48.380Z,19.20
2023-07-31T09:19:48.353Z,19.24
2023-07-31T09:20:48.333Z,19.25
2023-07-31T09:21:48.370Z,19.20
2023-07-31T09:22:48.340Z,19.16
2023-07-31T09:23:48.307Z,19.16
2023-07-31T09:24:48.300Z,19.21
2023-07-31T09:25:48.300Z,19.25
2023-07-31T09:26:48.267Z,19.27
2023-07-31T09:27:48.291Z,19.28
2023-07-31T09:28:48.422Z,19.27
2023-07-31T09:29:48.268Z,19.27
2023-07-31T09:30:48.263Z,19.24
2023-07-31T09:31:48.321Z,19.27
2023-07-31T09:32:48.251Z,19.24
2023-07-31T09:33:48.212Z,19.24
2023-07-31T09:34:48.208Z,19.25
2023-07-31T09:35:48.190Z,19.23
2023-07-31T09:36:48.170Z,19.27
2023-07-31T09:37:48.154Z,19.27
2023-07-31T09:38:48.199Z,19.27
2023-07-31T09:39:48.175Z,19.30
2023-07-31T09:40:48.169Z,19.32
2023-07-31T09:41:48.110Z,19.38
2023-07-31T09:42:48.133Z,19.45
2023-07-31T09:43:48.102Z,19.50
2023-07-31T09:44:48.109Z,19.58
2023-07-31T09:45:48.123Z,19.62
2023-07-31T09:46:48.080Z,19.62
2023-07-31T09:47:48.103Z,19.67
2023-07-31T09:48:48.068Z,19.67
2023-07-31T09:49:48.072Z,19.72
2023-07-31T09:50:48.064Z,19.78
2023-07-31T09:51:48.056Z,19.82
2023-07-31T09:52:48.038Z,19.83
2023-07-31T09:53:47.994Z,19.83
2023-07-31T09:54:48.023Z,19.87
2023-07-31T09:55:47.980Z,19.85
2023-07-31T09:56:47.959Z,19.86
2023-07-31T09:57:47.956Z,19.85
2023-07-31T09:58:47.949Z,19.79
2023-07-31T09:59:47.955Z,19.76
2023-07-31T10:00:47.910Z,19.64
2023-07-31T10:01:48.004Z,19.62
2023-07-31T10:02:47.978Z,19.64
2023-07-31T10:03:47.893Z,19.60
2023-07-31T10:04:47.886Z,19.62
2023-07-31T10:05:47.878Z,19.67
2023-07-31T10:06:47.859Z,19.62
2023-07-31T10:07:47.856Z,19.62
2023-07-31T10:08:47.839Z,19.64
2023-07-31T10:09:47.813Z,19.53
2023-07-31T10:10:47.839Z,19.57
2023-07-31T10:11:47.801Z,19.60
2023-07-31T10:12:47.784Z,19.55
2023-07-31T10:13:47.783Z,19.52
2023-07-31T10:14:47.789Z,19.49
2023-07-31T10:15:47.785Z,19.45
2023-07-31T10:16:47.758Z,19.40
2023-07-31T10:17:47.750Z,19.42
2023-07-31T10:18:47.751Z,19.39
2023-07-31T10:19:47.723Z,19.39
2023-07-31T10:20:47.721Z,19.40
2023-07-31T10:21:47.762Z,19.38
2023-07-31T10:22:47.690Z,19.35
2023-07-31T10:23:47.680Z,19.32
2023-07-31T10:24:47.667Z,19.27
2023-07-31T10:25:47.667Z,19.27
2023-07-31T10:26:47.667Z,19.31
2023-07-31T10:27:47.627Z,19.38
2023-07-31T10:28:47.685Z,19.35
2023-07-31T10:29:47.656Z,19.39
2023-07-31T10:30:47.638Z,19.42
2023-07-31T10:31:47.664Z,19.50
2023-07-31T10:32:47.686Z,19.53
2023-07-31T10:33:47.575Z,19.55
2023-07-31T10:34:47.567Z,19.55
2023-07-31T10:35:47.546Z,19.57
2023-07-31T10:36:47.624Z,19.61
2023-07-31T10:37:47.538Z,19.71
2023-07-31T10:38:47.505Z,19.85
2023-07-31T10:39:47.515Z,19.98
2023-07-31T10:40:47.484Z,20.13
2023-07-31T10:41:47.491Z,20.30
2023-07-31T10:42:47.472Z,20.41
2023-07-31T10:43:47.475Z,20.56
2023-07-31T10:44:47.502Z,20.66
2023-07-31T10:45:47.462Z,20.76
2023-07-31T10:46:47.516Z,20.81
2023-07-31T10:47:47.479Z,20.83
2023-07-31T10:48:47.425Z,20.93
2023-07-31T10:49:47.419Z,20.96
2023-07-31T10:50:47.420Z,21.01
2023-07-31T10:51:47.379Z,21.05
2023-07-31T10:52:47.373Z,21.09
2023-07-31T10:53:47.358Z,21.18
2023-07-31T10:54:47.340Z,21.24
2023-07-31T10:55:47.346Z,21.22
2023-07-31T10:56:47.346Z,21.06
2023-07-31T10:57:47.306Z,21.00
2023-07-31T10:58:47.365Z,21.03
2023-07-31T10:59:47.277Z,21.06
2023-07-31T11:00:47.335Z,21.12
2023-07-31T11:01:48.146Z,21.12
2023-07-31T11:02:47.258Z,21.15
2023-07-31T11:03:47.332Z,21.13
2023-07-31T11:04:47.233Z,21.08
2023-07-31T11:05:47.294Z,21.01
2023-07-31T11:06:47.199Z,20.90
2023-07-31T11:07:47.188Z,20.81
2023-07-31T11:08:47.213Z,20.75
2023-07-31T11:09:47.178Z,20.71
2023-07-31T11:10:47.172Z,20.73
2023-07-31T11:11:47.158Z,20.76
2023-07-31T11:12:47.141Z,20.64
2023-07-31T11:13:47.138Z,20.63
2023-07-31T11:14:47.215Z,20.61
2023-07-31T11:15:47.105Z,20.64
2023-07-31T11:16:47.127Z,20.66
2023-07-31T11:17:47.106Z,20.69
2023-07-31T11:18:47.088Z,20.73
2023-07-31T11:19:47.079Z,20.73
2023-07-31T11:20:47.095Z,20.73
2023-07-31T11:21:47.044Z,20.72
2023-07-31T11:22:47.001Z,20.75
2023-07-31T11:23:47.914Z,20.79
2023-07-31T11:24:46.985Z,20.79
2023-07-31T11:25:46.978Z,20.76
2023-07-31T11:26:47.070Z,20.73
2023-07-31T11:27:46.951Z,20.78
2023-07-31T11:28:46.928Z,20.82
2023-07-31T11:29:46.924Z,20.85
2023-07-31T11:30:46.967Z,20.96
2023-07-31T11:31:46.911Z,21.06
2023-07-31T11:32:46.980Z,21.18
2023-07-31T11:33:46.913Z,21.26
2023-07-31T11:34:46.878Z,21.28
2023-07-31T11:35:46.908Z,21.30
2023-07-31T11:36:46.864Z,21.27
2023-07-31T11:37:46.898Z,21.24
2023-07-31T11:38:46.906Z,21.15
2023-07-31T11:39:46.815Z,21.05
2023-07-31T11:40:46.869Z,20.97
2023-07-31T11:41:46.808Z,20.91
2023-07-31T11:42:46.835Z,20.93
2023-07-31T11:43:46.779Z,20.94
2023-07-31T11:44:46.750Z,20.88
2023-07-31T11:45:46.800Z,20.83
2023-07-31T11:46:46.821Z,20.88
2023-07-31T11:47:46.783Z,20.88
2023-07-31T11:48:46.755Z,20.90
2023-07-31T11:49:46.707Z,20.91
2023-07-31T11:50:46.700Z,20.82
2023-07-31T11:51:46.697Z,20.88
2023-07-31T11:52:46.685Z,20.91
2023-07-31T11:53:46.672Z,20.93
2023-07-31T11:54:46.662Z,20.88
2023-07-31T11:55:46.650Z,20.87
2023-07-31T11:56:46.699Z,20.91
2023-07-31T11:57:46.619Z,21.00
2023-07-31T11:58:46.621Z,21.06
2023-07-31T11:59:46.614Z,21.03
2023-07-31T12:00:46.588Z,21.00
2023-07-31T12:01:46.626Z,20.97
2023-07-31T12:02:46.595Z,21.00
2023-07-31T12:03:46.584Z,21.05
2023-07-31T12:04:46.528Z,21.11
2023-07-31T12:05:46.529Z,21.19
2023-07-31T12:06:46.535Z,21.28
2023-07-31T12:07:46.489Z,21.37
2023-07-31T12:08:46.492Z,21.38
2023-07-31T12:09:46.480Z,21.40
2023-07-31T12:10:46.457Z,21.40
2023-07-31T12:11:46.452Z,21.42
2023-07-31T12:12:46.446Z,21.28
2023-07-31T12:13:46.448Z,21.22
2023-07-31T12:14:46.443Z,21.21
2023-07-31T12:15:46.415Z,21.24
2023-07-31T12:16:46.485Z,21.22
2023-07-31T12:17:46.417Z,21.21
2023-07-31T12:18:46.383Z,21.22
2023-07-31T12:19:46.354Z,21.19
2023-07-31T12:20:46.367Z,21.05
2023-07-31T12:21:46.326Z,20.85
2023-07-31T12:22:46.345Z,20.81
2023-07-31T12:23:46.312Z,20.78
2023-07-31T12:24:46.289Z,20.75
2023-07-31T12:25:46.309Z,20.76
2023-07-31T12:26:46.263Z,20.76
2023-07-31T12:27:46.311Z,20.76
2023-07-31T12:28:46.287Z,20.79
2023-07-31T12:29:46.274Z,20.82
2023-07-31T12:30:46.246Z,20.85
2023-07-31T12:31:46.268Z,20.79
2023-07-31T12:32:46.253Z,20.78
2023-07-31T12:33:46.219Z,20.69
2023-07-31T12:34:46.197Z,20.57
2023-07-31T12:35:46.186Z,20.61
2023-07-31T12:36:46.188Z,20.54
2023-07-31T12:37:46.155Z,20.41
2023-07-31T12:38:46.157Z,20.51
2023-07-31T12:39:46.145Z,20.56
2023-07-31T12:40:46.128Z,20.66
2023-07-31T12:41:46.111Z,20.69
2023-07-31T12:42:46.089Z,20.78
2023-07-31T12:43:46.076Z,20.82
2023-07-31T12:44:46.073Z,20.61
2023-07-31T12:45:46.113Z,20.57
2023-07-31T12:46:46.057Z,20.57
2023-07-31T12:47:46.084Z,20.68
2023-07-31T12:48:46.042Z,20.78
2023-07-31T12:49:46.021Z,20.83
2023-07-31T12:50:46.004Z,20.93
2023-07-31T12:51:45.989Z,21.00
2023-07-31T12:52:45.993Z,21.09